sensor_id;sensor_type;location;lat;lon;timestamp;pressure;altitude;pressure_sealevel;temperature;humidity
40502;BME280;29631;49.168;9.848;2023-01-19T00:00:13;95506.84;;;4.93;75.88
40502;BME280;29631;49.168;9.848;2023-01-19T00:02:40;95523.13;;;5.01;75.59
40502;BME280;29631;49.168;9.848;2023-01-19T00:05:08;95501.03;;;4.84;75.77
40502;BME280;29631;49.168;9.848;2023-01-19T00:07:33;95514.28;;;4.89;76.57
40502;BME280;29631;49.168;9.848;2023-01-19T00:09:59;95486.94;;;4.79;76.69
40502;BME280;29631;49.168;9.848;2023-01-19T00:12:25;95513.91;;;4.92;75.98
40502;BME280;29631;49.168;9.848;2023-01-19T00:14:51;95524.53;;;5.03;76.75
40502;BME280;29631;49.168;9.848;2023-01-19T00:17:17;95512.31;;;5.04;76.81
40502;BME280;29631;49.168;9.848;2023-01-19T00:19:42;95513.09;;;5.04;76.23
40502;BME280;29631;49.168;9.848;2023-01-19T00:22:08;95527.97;;;5.10;76.57
40502;BME280;29631;49.168;9.848;2023-01-19T00:24:34;95486.56;;;4.88;76.24
40502;BME280;29631;49.168;9.848;2023-01-19T00:27:00;95518.13;;;5.06;76.45
40502;BME280;29631;49.168;9.848;2023-01-19T00:29:28;95511.72;;;5.08;76.75
40502;BME280;29631;49.168;9.848;2023-01-19T00:31:59;95533.63;;;5.20;75.93
40502;BME280;29631;49.168;9.848;2023-01-19T00:34:26;95506.28;;;5.10;76.56
40502;BME280;29631;49.168;9.848;2023-01-19T00:36:52;95510.09;;;5.14;75.85
40502;BME280;29631;49.168;9.848;2023-01-19T00:39:17;95510.50;;;5.11;76.23
40502;BME280;29631;49.168;9.848;2023-01-19T00:41:43;95525.78;;;5.27;75.95
40502;BME280;29631;49.168;9.848;2023-01-19T00:44:28;95521.16;;;5.22;75.78
40502;BME280;29631;49.168;9.848;2023-01-19T00:46:53;95485.78;;;5.07;76.58
40502;BME280;29631;49.168;9.848;2023-01-19T00:49:19;95518.75;;;5.21;76.41
40502;BME280;29631;49.168;9.848;2023-01-19T00:51:45;95530.38;;;5.25;75.72
40502;BME280;29631;49.168;9.848;2023-01-19T00:54:10;95498.84;;;5.07;75.93
40502;BME280;29631;49.168;9.848;2023-01-19T00:56:36;95514.69;;;5.12;75.74
40502;BME280;29631;49.168;9.848;2023-01-19T00:59:03;95529.38;;;5.13;76.17
40502;BME280;29631;49.168;9.848;2023-01-19T01:01:29;95544.66;;;5.16;76.04
40502;BME280;29631;49.168;9.848;2023-01-19T01:03:55;95512.47;;;5.02;76.27
40502;BME280;29631;49.168;9.848;2023-01-19T01:06:21;95542.03;;;5.22;76.63
40502;BME280;29631;49.168;9.848;2023-01-19T01:08:47;95553.31;;;5.23;76.47
40502;BME280;29631;49.168;9.848;2023-01-19T01:11:12;95542.66;;;5.18;76.21
40502;BME280;29631;49.168;9.848;2023-01-19T01:13:38;95538.22;;;5.12;76.63
40502;BME280;29631;49.168;9.848;2023-01-19T01:16:05;95533.38;;;5.15;75.90
40502;BME280;29631;49.168;9.848;2023-01-19T01:18:32;95545.66;;;5.21;76.24
40502;BME280;29631;49.168;9.848;2023-01-19T01:21:05;95486.38;;;4.83;75.66
40502;BME280;29631;49.168;9.848;2023-01-19T01:23:32;95549.69;;;5.30;76.51
40502;BME280;29631;49.168;9.848;2023-01-19T01:25:58;95541.25;;;5.35;76.56
40502;BME280;29631;49.168;9.848;2023-01-19T01:28:25;95535.22;;;5.28;76.35
40502;BME280;29631;49.168;9.848;2023-01-19T01:30:55;95551.31;;;5.44;75.87
40502;BME280;29631;49.168;9.848;2023-01-19T01:33:22;95535.22;;;5.28;75.61
40502;BME280;29631;49.168;9.848;2023-01-19T01:35:48;95539.25;;;5.24;75.33
40502;BME280;29631;49.168;9.848;2023-01-19T01:38:15;95556.13;;;5.41;75.58
40502;BME280;29631;49.168;9.848;2023-01-19T01:40:42;95533.22;;;5.30;75.45
40502;BME280;29631;49.168;9.848;2023-01-19T01:43:19;95551.50;;;5.36;75.83
40502;BME280;29631;49.168;9.848;2023-01-19T01:45:47;95554.53;;;5.40;75.24
40502;BME280;29631;49.168;9.848;2023-01-19T01:48:28;95533.81;;;5.25;75.26
40502;BME280;29631;49.168;9.848;2023-01-19T01:51:05;95548.91;;;5.30;75.17
40502;BME280;29631;49.168;9.848;2023-01-19T01:53:59;95545.28;;;5.31;76.32
40502;BME280;29631;49.168;9.848;2023-01-19T01:56:37;95558.56;;;5.36;75.88
40502;BME280;29631;49.168;9.848;2023-01-19T01:59:08;95549.88;;;5.22;75.19
40502;BME280;29631;49.168;9.848;2023-01-19T02:01:35;95549.88;;;5.16;75.26
40502;BME280;29631;49.168;9.848;2023-01-19T02:04:20;95548.25;;;5.02;75.97
40502;BME280;29631;49.168;9.848;2023-01-19T02:06:47;95549.25;;;5.01;75.89
40502;BME280;29631;49.168;9.848;2023-01-19T02:09:35;95558.50;;;4.97;75.86
40502;BME280;29631;49.168;9.848;2023-01-19T02:12:21;95564.09;;;4.94;75.96
40502;BME280;29631;49.168;9.848;2023-01-19T02:15:15;95567.69;;;4.87;75.37
40502;BME280;29631;49.168;9.848;2023-01-19T02:17:41;95562.84;;;4.84;76.27
40502;BME280;29631;49.168;9.848;2023-01-19T02:20:07;95558.84;;;4.81;76.22
40502;BME280;29631;49.168;9.848;2023-01-19T02:22:46;95517.81;;;4.56;75.97
40502;BME280;29631;49.168;9.848;2023-01-19T02:25:12;95547.56;;;4.68;76.14
40502;BME280;29631;49.168;9.848;2023-01-19T02:27:38;95513.28;;;4.24;75.32
40502;BME280;29631;49.168;9.848;2023-01-19T02:30:06;95579.66;;;4.68;75.53
40502;BME280;29631;49.168;9.848;2023-01-19T02:32:32;95549.50;;;4.46;75.62
40502;BME280;29631;49.168;9.848;2023-01-19T02:34:57;95562.69;;;4.38;75.37
40502;BME280;29631;49.168;9.848;2023-01-19T02:37:24;95496.34;;;4.01;75.70
40502;BME280;29631;49.168;9.848;2023-01-19T02:39:57;95540.38;;;4.29;75.72
40502;BME280;29631;49.168;9.848;2023-01-19T02:42:29;95555.44;;;4.28;76.37
40502;BME280;29631;49.168;9.848;2023-01-19T02:44:57;95571.88;;;4.34;75.71
40502;BME280;29631;49.168;9.848;2023-01-19T02:47:23;95560.25;;;4.30;76.18
40502;BME280;29631;49.168;9.848;2023-01-19T02:49:57;95566.91;;;4.39;75.49
40502;BME280;29631;49.168;9.848;2023-01-19T02:52:23;95570.78;;;4.50;75.56
40502;BME280;29631;49.168;9.848;2023-01-19T02:55:08;95570.94;;;4.48;76.25
40502;BME280;29631;49.168;9.848;2023-01-19T02:58:04;95575.19;;;4.49;75.98
40502;BME280;29631;49.168;9.848;2023-01-19T03:09:32;95566.22;;;4.25;75.84
40502;BME280;29631;49.168;9.848;2023-01-19T03:12:30;95566.03;;;4.26;76.50
40502;BME280;29631;49.168;9.848;2023-01-19T03:15:27;95569.69;;;4.31;75.97
40502;BME280;29631;49.168;9.848;2023-01-19T03:17:55;95573.97;;;4.52;76.19
40502;BME280;29631;49.168;9.848;2023-01-19T03:20:24;95568.59;;;4.53;75.84
40502;BME280;29631;49.168;9.848;2023-01-19T03:22:59;95518.47;;;4.18;76.11
40502;BME280;29631;49.168;9.848;2023-01-19T03:25:27;95599.13;;;4.66;75.32
40502;BME280;29631;49.168;9.848;2023-01-19T03:27:56;95556.13;;;4.55;75.25
40502;BME280;29631;49.168;9.848;2023-01-19T03:30:27;95587.72;;;4.73;76.14
40502;BME280;29631;49.168;9.848;2023-01-19T03:33:03;95586.75;;;4.81;76.11
40502;BME280;29631;49.168;9.848;2023-01-19T03:35:38;95550.13;;;4.61;76.11
40502;BME280;29631;49.168;9.848;2023-01-19T03:38:15;95574.28;;;4.76;75.48
40502;BME280;29631;49.168;9.848;2023-01-19T03:40:41;95589.00;;;4.90;75.69
40502;BME280;29631;49.168;9.848;2023-01-19T03:43:08;95575.31;;;4.82;76.09
40502;BME280;29631;49.168;9.848;2023-01-19T03:45:37;95588.56;;;4.87;75.86
40502;BME280;29631;49.168;9.848;2023-01-19T03:48:04;95563.22;;;4.74;75.52
40502;BME280;29631;49.168;9.848;2023-01-19T03:50:31;95577.72;;;4.83;76.49
40502;BME280;29631;49.168;9.848;2023-01-19T03:53:12;95597.19;;;4.81;76.54
40502;BME280;29631;49.168;9.848;2023-01-19T03:55:47;95584.09;;;4.74;76.20
40502;BME280;29631;49.168;9.848;2023-01-19T03:58:14;95585.56;;;4.83;76.05
40502;BME280;29631;49.168;9.848;2023-01-19T04:00:40;95555.59;;;4.66;75.87
40502;BME280;29631;49.168;9.848;2023-01-19T04:03:14;95593.41;;;4.96;76.50
40502;BME280;29631;49.168;9.848;2023-01-19T04:05:40;95593.41;;;4.96;76.51
40502;BME280;29631;49.168;9.848;2023-01-19T04:08:06;95587.75;;;4.86;76.24
40502;BME280;29631;49.168;9.848;2023-01-19T04:10:32;95609.50;;;5.06;76.61
40502;BME280;29631;49.168;9.848;2023-01-19T04:12:59;95600.66;;;5.01;75.97
40502;BME280;29631;49.168;9.848;2023-01-19T04:15:26;95597.44;;;4.92;75.63
40502;BME280;29631;49.168;9.848;2023-01-19T04:17:53;95521.00;;;4.51;76.31
40502;BME280;29631;49.168;9.848;2023-01-19T04:20:19;95562.63;;;4.72;75.69
40502;BME280;29631;49.168;9.848;2023-01-19T04:22:46;95582.16;;;4.89;76.49
40502;BME280;29631;49.168;9.848;2023-01-19T04:25:12;95600.88;;;5.05;76.46
40502;BME280;29631;49.168;9.848;2023-01-19T04:27:38;95599.47;;;5.09;75.88
40502;BME280;29631;49.168;9.848;2023-01-19T04:30:04;95597.06;;;5.08;75.88
40502;BME280;29631;49.168;9.848;2023-01-19T04:32:31;95575.34;;;5.01;76.16
40502;BME280;29631;49.168;9.848;2023-01-19T04:34:58;95601.31;;;5.22;76.49
40502;BME280;29631;49.168;9.848;2023-01-19T04:37:24;95595.88;;;5.23;75.76
40502;BME280;29631;49.168;9.848;2023-01-19T04:39:49;95548.44;;;4.94;75.93
40502;BME280;29631;49.168;9.848;2023-01-19T04:42:15;95608.78;;;5.38;76.19
40502;BME280;29631;49.168;9.848;2023-01-19T04:44:42;95569.38;;;5.20;76.41
40502;BME280;29631;49.168;9.848;2023-01-19T04:47:08;95586.69;;;5.40;76.13
40502;BME280;29631;49.168;9.848;2023-01-19T04:49:34;95556.91;;;5.09;76.38
40502;BME280;29631;49.168;9.848;2023-01-19T04:52:03;95605.97;;;5.46;75.99
40502;BME280;29631;49.168;9.848;2023-01-19T04:54:29;95578.84;;;5.34;76.41
40502;BME280;29631;49.168;9.848;2023-01-19T04:56:55;95602.38;;;5.47;75.92
40502;BME280;29631;49.168;9.848;2023-01-19T04:59:21;95549.66;;;5.04;76.14
40502;BME280;29631;49.168;9.848;2023-01-19T05:01:46;95579.44;;;5.29;76.73
40502;BME280;29631;49.168;9.848;2023-01-19T05:04:12;95592.69;;;5.28;76.61
40502;BME280;29631;49.168;9.848;2023-01-19T05:06:38;95619.25;;;5.51;76.62
40502;BME280;29631;49.168;9.848;2023-01-19T05:09:04;95552.47;;;5.03;76.09
40502;BME280;29631;49.168;9.848;2023-01-19T05:11:32;95580.84;;;5.38;76.56
40502;BME280;29631;49.168;9.848;2023-01-19T05:13:58;95557.72;;;5.16;76.51
40502;BME280;29631;49.168;9.848;2023-01-19T05:16:23;95643.41;;;5.72;76.19
40502;BME280;29631;49.168;9.848;2023-01-19T05:18:49;95628.94;;;5.70;76.35
40502;BME280;29631;49.168;9.848;2023-01-19T05:21:15;95603.94;;;5.41;76.72
40502;BME280;29631;49.168;9.848;2023-01-19T05:23:40;95598.34;;;5.51;76.43
40502;BME280;29631;49.168;9.848;2023-01-19T05:26:07;95616.63;;;5.51;76.16
40502;BME280;29631;49.168;9.848;2023-01-19T05:28:33;95619.66;;;5.48;76.31
40502;BME280;29631;49.168;9.848;2023-01-19T05:30:59;95612.97;;;5.26;76.58
40502;BME280;29631;49.168;9.848;2023-01-19T05:33:25;95564.53;;;5.04;77.09
40502;BME280;29631;49.168;9.848;2023-01-19T05:35:53;95650.84;;;5.56;77.13
40502;BME280;29631;49.168;9.848;2023-01-19T05:38:20;95638.16;;;5.53;76.33
40502;BME280;29631;49.168;9.848;2023-01-19T05:40:47;95633.13;;;5.58;76.30
40502;BME280;29631;49.168;9.848;2023-01-19T05:43:13;95610.38;;;5.39;76.14
40502;BME280;29631;49.168;9.848;2023-01-19T05:45:39;95641.97;;;5.63;76.32
40502;BME280;29631;49.168;9.848;2023-01-19T05:48:07;95638.75;;;5.55;75.99
40502;BME280;29631;49.168;9.848;2023-01-19T05:50:33;95604.75;;;5.29;76.14
40502;BME280;29631;49.168;9.848;2023-01-19T05:53:00;95638.53;;;5.43;76.80
40502;BME280;29631;49.168;9.848;2023-01-19T05:55:27;95639.34;;;5.44;76.97
40502;BME280;29631;49.168;9.848;2023-01-19T05:57:53;95647.41;;;5.49;77.22
40502;BME280;29631;49.168;9.848;2023-01-19T06:00:19;95629.28;;;5.41;76.64
40502;BME280;29631;49.168;9.848;2023-01-19T06:02:44;95631.88;;;5.34;76.41
40502;BME280;29631;49.168;9.848;2023-01-19T06:05:12;95644.00;;;5.55;76.85
40502;BME280;29631;49.168;9.848;2023-01-19T06:07:38;95653.06;;;5.65;76.87
40502;BME280;29631;49.168;9.848;2023-01-19T06:10:04;95581.44;;;5.14;76.88
40502;BME280;29631;49.168;9.848;2023-01-19T06:12:30;95656.25;;;5.61;76.34
40502;BME280;29631;49.168;9.848;2023-01-19T06:14:57;95637.94;;;5.48;76.81
40502;BME280;29631;49.168;9.848;2023-01-19T06:17:22;95633.72;;;5.47;76.83
40502;BME280;29631;49.168;9.848;2023-01-19T06:19:48;95650.41;;;5.59;77.06
40502;BME280;29631;49.168;9.848;2023-01-19T06:22:14;95667.34;;;5.63;76.80
40502;BME280;29631;49.168;9.848;2023-01-19T06:24:40;95593.28;;;5.17;76.46
40502;BME280;29631;49.168;9.848;2023-01-19T06:27:06;95684.84;;;5.69;76.25
40502;BME280;29631;49.168;9.848;2023-01-19T06:29:31;95673.75;;;5.67;76.96
40502;BME280;29631;49.168;9.848;2023-01-19T06:31:57;95677.38;;;5.59;76.16
40502;BME280;29631;49.168;9.848;2023-01-19T06:34:23;95596.66;;;5.04;75.72
40502;BME280;29631;49.168;9.848;2023-01-19T06:36:54;95670.53;;;5.58;76.46
40502;BME280;29631;49.168;9.848;2023-01-19T06:39:20;95606.72;;;5.14;76.29
40502;BME280;29631;49.168;9.848;2023-01-19T06:41:46;95680.56;;;5.55;76.01
40502;BME280;29631;49.168;9.848;2023-01-19T06:44:12;95689.63;;;5.52;76.38
40502;BME280;29631;49.168;9.848;2023-01-19T06:46:38;95685.41;;;5.51;76.62
40502;BME280;29631;49.168;9.848;2023-01-19T06:49:03;95679.34;;;5.51;76.21
40502;BME280;29631;49.168;9.848;2023-01-19T06:51:29;95689.41;;;5.54;76.94
40502;BME280;29631;49.168;9.848;2023-01-19T06:53:56;95668.09;;;5.44;76.50
40502;BME280;29631;49.168;9.848;2023-01-19T06:56:22;95687.59;;;5.54;76.80
40502;BME280;29631;49.168;9.848;2023-01-19T06:58:48;95686.38;;;5.44;76.25
40502;BME280;29631;49.168;9.848;2023-01-19T07:01:15;95672.28;;;5.45;76.85
40502;BME280;29631;49.168;9.848;2023-01-19T07:03:41;95674.53;;;5.48;76.29
40502;BME280;29631;49.168;9.848;2023-01-19T07:06:07;95701.69;;;5.60;76.16
40502;BME280;29631;49.168;9.848;2023-01-19T07:08:34;95680.38;;;5.50;76.77
40502;BME280;29631;49.168;9.848;2023-01-19T07:11:03;95660.22;;;5.31;76.81
40502;BME280;29631;49.168;9.848;2023-01-19T07:13:32;95650.13;;;5.15;76.23
40502;BME280;29631;49.168;9.848;2023-01-19T07:16:00;95687.34;;;5.30;76.22
40502;BME280;29631;49.168;9.848;2023-01-19T07:18:27;95692.38;;;5.31;76.89
40502;BME280;29631;49.168;9.848;2023-01-19T07:20:56;95705.63;;;5.30;76.39
40502;BME280;29631;49.168;9.848;2023-01-19T07:23:21;95683.91;;;5.23;76.23
40502;BME280;29631;49.168;9.848;2023-01-19T07:25:47;95690.91;;;5.22;76.29
40502;BME280;29631;49.168;9.848;2023-01-19T07:28:13;95664.91;;;4.95;76.07
40502;BME280;29631;49.168;9.848;2023-01-19T07:30:43;95697.91;;;5.09;76.39
40502;BME280;29631;49.168;9.848;2023-01-19T07:33:11;95704.97;;;5.15;76.02
40502;BME280;29631;49.168;9.848;2023-01-19T07:35:36;95703.13;;;5.09;76.46
40502;BME280;29631;49.168;9.848;2023-01-19T07:38:02;95690.81;;;4.97;76.09
40502;BME280;29631;49.168;9.848;2023-01-19T07:40:28;95684.00;;;4.96;76.15
40502;BME280;29631;49.168;9.848;2023-01-19T07:42:54;95713.19;;;5.12;76.45
40502;BME280;29631;49.168;9.848;2023-01-19T07:45:20;95697.50;;;5.05;76.08
40502;BME280;29631;49.168;9.848;2023-01-19T07:47:47;95703.91;;;5.03;76.38
40502;BME280;29631;49.168;9.848;2023-01-19T07:50:16;95695.25;;;4.96;76.74
40502;BME280;29631;49.168;9.848;2023-01-19T07:52:42;95687.78;;;4.93;76.46
40502;BME280;29631;49.168;9.848;2023-01-19T07:55:09;95678.53;;;4.84;76.29
40502;BME280;29631;49.168;9.848;2023-01-19T07:57:35;95699.06;;;5.00;76.99
40502;BME280;29631;49.168;9.848;2023-01-19T08:00:02;95712.38;;;5.05;76.53
40502;BME280;29631;49.168;9.848;2023-01-19T08:02:29;95707.38;;;5.10;76.59
40502;BME280;29631;49.168;9.848;2023-01-19T08:04:56;95706.72;;;5.02;76.27
40502;BME280;29631;49.168;9.848;2023-01-19T08:07:22;95717.19;;;5.08;76.48
40502;BME280;29631;49.168;9.848;2023-01-19T08:09:47;95722.81;;;5.05;75.90
40502;BME280;29631;49.168;9.848;2023-01-19T08:12:13;95728.38;;;4.96;76.40
40502;BME280;29631;49.168;9.848;2023-01-19T08:14:39;95690.53;;;4.79;75.69
40502;BME280;29631;49.168;9.848;2023-01-19T08:17:04;95705.06;;;4.94;76.22
40502;BME280;29631;49.168;9.848;2023-01-19T08:19:30;95709.50;;;5.00;75.79
40502;BME280;29631;49.168;9.848;2023-01-19T08:21:56;95631.06;;;4.68;76.11
40502;BME280;29631;49.168;9.848;2023-01-19T08:24:23;95723.03;;;5.70;76.55
40502;BME280;29631;49.168;9.848;2023-01-19T08:27:01;95728.34;;;6.41;75.26
40502;BME280;29631;49.168;9.848;2023-01-19T08:29:28;95725.06;;;6.97;74.11
40502;BME280;29631;49.168;9.848;2023-01-19T08:31:58;95709.63;;;7.32;73.01
40502;BME280;29631;49.168;9.848;2023-01-19T08:34:26;95742.91;;;7.69;72.91
40502;BME280;29631;49.168;9.848;2023-01-19T08:36:52;95730.84;;;7.68;72.30
40502;BME280;29631;49.168;9.848;2023-01-19T08:39:17;95757.94;;;7.93;72.98
40502;BME280;29631;49.168;9.848;2023-01-19T08:41:43;95733.47;;;7.99;72.18
40502;BME280;29631;49.168;9.848;2023-01-19T08:44:09;95728.56;;;7.78;72.49
40502;BME280;29631;49.168;9.848;2023-01-19T08:46:35;95750.38;;;7.72;73.08
40502;BME280;29631;49.168;9.848;2023-01-19T08:49:01;95756.72;;;7.52;73.11
40502;BME280;29631;49.168;9.848;2023-01-19T08:51:27;95772.94;;;7.29;73.74
40502;BME280;29631;49.168;9.848;2023-01-19T08:53:52;95767.78;;;6.97;74.49
40502;BME280;29631;49.168;9.848;2023-01-19T08:56:18;95754.13;;;6.69;74.25
40502;BME280;29631;49.168;9.848;2023-01-19T08:58:45;95754.50;;;6.47;75.43
40502;BME280;29631;49.168;9.848;2023-01-19T09:01:12;95769.84;;;6.50;75.77
40502;BME280;29631;49.168;9.848;2023-01-19T09:03:45;95748.50;;;6.34;75.62
40502;BME280;29631;49.168;9.848;2023-01-19T09:06:14;95743.66;;;6.24;75.86
40502;BME280;29631;49.168;9.848;2023-01-19T09:08:42;95758.97;;;6.34;75.43
40502;BME280;29631;49.168;9.848;2023-01-19T09:11:13;95749.88;;;6.10;75.27
40502;BME280;29631;49.168;9.848;2023-01-19T09:13:40;95748.06;;;6.04;75.70
40502;BME280;29631;49.168;9.848;2023-01-19T09:16:07;95752.09;;;6.00;75.93
40502;BME280;29631;49.168;9.848;2023-01-19T09:18:34;95779.84;;;6.01;75.22
40502;BME280;29631;49.168;9.848;2023-01-19T09:21:01;95743.22;;;5.88;75.55
40502;BME280;29631;49.168;9.848;2023-01-19T09:23:28;95748.44;;;5.88;76.27
40502;BME280;29631;49.168;9.848;2023-01-19T09:26:00;95736.75;;;5.84;75.60
40502;BME280;29631;49.168;9.848;2023-01-19T09:28:27;95752.47;;;5.91;76.04
40502;BME280;29631;49.168;9.848;2023-01-19T09:30:54;95760.13;;;5.92;75.93
40502;BME280;29631;49.168;9.848;2023-01-19T09:33:20;95718.56;;;5.64;75.52
40502;BME280;29631;49.168;9.848;2023-01-19T09:35:47;95759.91;;;5.87;76.09
40502;BME280;29631;49.168;9.848;2023-01-19T09:38:14;95761.13;;;5.85;76.43
40502;BME280;29631;49.168;9.848;2023-01-19T09:40:46;95757.09;;;5.82;76.20
40502;BME280;29631;49.168;9.848;2023-01-19T09:43:37;95764.94;;;5.82;75.62
40502;BME280;29631;49.168;9.848;2023-01-19T09:46:36;95758.84;;;5.75;76.28
40502;BME280;29631;49.168;9.848;2023-01-19T09:49:20;95768.47;;;5.69;75.73
40502;BME280;29631;49.168;9.848;2023-01-19T09:51:50;95755.16;;;5.64;76.04
40502;BME280;29631;49.168;9.848;2023-01-19T09:54:39;95752.78;;;5.69;76.26
40502;BME280;29631;49.168;9.848;2023-01-19T09:57:12;95750.38;;;5.73;76.27
40502;BME280;29631;49.168;9.848;2023-01-19T09:59:40;95757.84;;;5.76;76.14
40502;BME280;29631;49.168;9.848;2023-01-19T10:02:36;95762.03;;;5.71;75.91
40502;BME280;29631;49.168;9.848;2023-01-19T10:10:57;95720.13;;;5.39;75.92
40502;BME280;29631;49.168;9.848;2023-01-19T10:13:48;95734.63;;;5.48;76.25
40502;BME280;29631;49.168;9.848;2023-01-19T10:16:33;95760.41;;;5.64;76.33
40502;BME280;29631;49.168;9.848;2023-01-19T10:19:31;95766.44;;;5.71;75.70
40502;BME280;29631;49.168;9.848;2023-01-19T10:22:17;95747.56;;;5.69;76.21
40502;BME280;29631;49.168;9.848;2023-01-19T10:24:44;95758.59;;;5.71;76.24
40502;BME280;29631;49.168;9.848;2023-01-19T10:27:30;95743.31;;;5.61;75.87
40502;BME280;29631;49.168;9.848;2023-01-19T10:30:00;95752.19;;;5.67;75.52
40502;BME280;29631;49.168;9.848;2023-01-19T10:32:33;95777.38;;;5.80;76.33
40502;BME280;29631;49.168;9.848;2023-01-19T10:35:13;95753.63;;;5.75;76.31
40502;BME280;29631;49.168;9.848;2023-01-19T10:37:39;95775.03;;;6.05;76.68
40502;BME280;29631;49.168;9.848;2023-01-19T10:42:38;95759.53;;;6.03;75.71
40502;BME280;29631;49.168;9.848;2023-01-19T10:45:16;95783.50;;;6.13;76.12
40502;BME280;29631;49.168;9.848;2023-01-19T10:47:45;95766.00;;;6.07;75.50
40502;BME280;29631;49.168;9.848;2023-01-19T10:50:28;95771.81;;;6.16;76.16
40502;BME280;29631;49.168;9.848;2023-01-19T10:52:57;95755.28;;;6.02;75.68
40502;BME280;29631;49.168;9.848;2023-01-19T10:55:29;95770.63;;;6.18;75.76
40502;BME280;29631;49.168;9.848;2023-01-19T10:57:56;95762.16;;;6.16;76.33
40502;BME280;29631;49.168;9.848;2023-01-19T11:00:38;95745.66;;;6.16;76.15
40502;BME280;29631;49.168;9.848;2023-01-19T11:03:30;95736.59;;;6.18;76.12
40502;BME280;29631;49.168;9.848;2023-01-19T11:08:42;95760.78;;;6.33;76.42
40502;BME280;29631;49.168;9.848;2023-01-19T11:11:09;95738.41;;;6.24;76.45
40502;BME280;29631;49.168;9.848;2023-01-19T11:13:38;95721.09;;;6.10;75.71
40502;BME280;29631;49.168;9.848;2023-01-19T11:16:25;95744.03;;;6.21;76.32
40502;BME280;29631;49.168;9.848;2023-01-19T11:18:54;95742.44;;;6.27;76.04
40502;BME280;29631;49.168;9.848;2023-01-19T11:21:26;95737.63;;;6.30;76.55
40502;BME280;29631;49.168;9.848;2023-01-19T11:24:03;95739.03;;;6.33;76.16
40502;BME280;29631;49.168;9.848;2023-01-19T11:26:45;95738.44;;;6.37;76.40
40502;BME280;29631;49.168;9.848;2023-01-19T11:29:25;95732.41;;;6.37;76.08
40502;BME280;29631;49.168;9.848;2023-01-19T11:31:53;95738.81;;;6.41;75.89
40502;BME280;29631;49.168;9.848;2023-01-19T11:34:36;95741.25;;;6.42;76.83
40502;BME280;29631;49.168;9.848;2023-01-19T11:40:00;95742.44;;;6.40;76.38
40502;BME280;29631;49.168;9.848;2023-01-19T11:42:32;95744.47;;;6.44;76.48
40502;BME280;29631;49.168;9.848;2023-01-19T11:45:16;95759.75;;;6.47;76.34
40502;BME280;29631;49.168;9.848;2023-01-19T11:47:47;95739.63;;;6.41;75.93
40502;BME280;29631;49.168;9.848;2023-01-19T11:50:28;95742.84;;;6.43;77.05
40502;BME280;29631;49.168;9.848;2023-01-19T11:53:12;95750.50;;;6.51;76.61
40502;BME280;29631;49.168;9.848;2023-01-19T11:56:01;95722.50;;;6.39;76.66
40502;BME280;29631;49.168;9.848;2023-01-19T11:58:30;95741.25;;;6.61;76.30
40502;BME280;29631;49.168;9.848;2023-01-19T12:03:33;95749.50;;;6.65;76.89
40502;BME280;29631;49.168;9.848;2023-01-19T12:06:09;95753.72;;;6.66;76.78
40502;BME280;29631;49.168;9.848;2023-01-19T12:08:52;95719.91;;;6.45;77.10
40502;BME280;29631;49.168;9.848;2023-01-19T12:11:28;95707.00;;;6.50;76.30
40502;BME280;29631;49.168;9.848;2023-01-19T12:13:56;95750.47;;;6.77;76.65
40502;BME280;29631;49.168;9.848;2023-01-19T12:16:28;95743.41;;;6.77;76.91
40502;BME280;29631;49.168;9.848;2023-01-19T12:19:28;95753.09;;;6.77;76.92
40502;BME280;29631;49.168;9.848;2023-01-19T12:21:57;95733.19;;;6.63;76.49
40502;BME280;29631;49.168;9.848;2023-01-19T12:24:38;95746.44;;;6.68;76.52
40502;BME280;29631;49.168;9.848;2023-01-19T12:27:42;95746.84;;;6.71;76.59
40502;BME280;29631;49.168;9.848;2023-01-19T12:30:27;95744.25;;;6.65;76.69
40502;BME280;29631;49.168;9.848;2023-01-19T12:33:30;95754.50;;;6.73;76.55
40502;BME280;29631;49.168;9.848;2023-01-19T12:36:07;95747.28;;;6.68;76.61
40502;BME280;29631;49.168;9.848;2023-01-19T12:38:54;95751.69;;;6.68;76.54
40502;BME280;29631;49.168;9.848;2023-01-19T12:41:33;95746.88;;;6.58;76.46
40502;BME280;29631;49.168;9.848;2023-01-19T12:49:47;95749.69;;;6.63;76.94
40502;BME280;29631;49.168;9.848;2023-01-19T12:52:29;95756.94;;;6.68;76.97
40502;BME280;29631;49.168;9.848;2023-01-19T13:11:14;95757.72;;;6.75;76.54
40502;BME280;29631;49.168;9.848;2023-01-19T13:21:43;95752.13;;;6.65;76.89
40502;BME280;29631;49.168;9.848;2023-01-19T13:24:14;95761.16;;;6.69;76.76
40502;BME280;29631;49.168;9.848;2023-01-19T13:29:19;95764.59;;;6.63;76.64
40502;BME280;29631;49.168;9.848;2023-01-19T13:31:47;95742.66;;;6.38;76.30
40502;BME280;29631;49.168;9.848;2023-01-19T13:34:23;95771.44;;;6.51;76.21
40502;BME280;29631;49.168;9.848;2023-01-19T13:36:52;95764.19;;;6.47;77.07
40502;BME280;29631;49.168;9.848;2023-01-19T13:39:29;95759.75;;;6.34;77.29
40502;BME280;29631;49.168;9.848;2023-01-19T13:42:04;95761.16;;;6.30;76.65
40502;BME280;29631;49.168;9.848;2023-01-19T13:44:40;95750.47;;;6.19;76.71
40502;BME280;29631;49.168;9.848;2023-01-19T13:47:15;95756.94;;;6.29;77.31
40502;BME280;29631;49.168;9.848;2023-01-19T13:49:44;95748.50;;;6.27;76.48
40502;BME280;29631;49.168;9.848;2023-01-19T13:52:21;95750.09;;;6.28;76.51
40502;BME280;29631;49.168;9.848;2023-01-19T13:54:53;95758.34;;;6.32;76.60
40502;BME280;29631;49.168;9.848;2023-01-19T13:57:43;95754.50;;;6.34;77.12
40502;BME280;29631;49.168;9.848;2023-01-19T14:03:10;95778.69;;;6.62;76.84
40502;BME280;29631;49.168;9.848;2023-01-19T14:05:41;95778.44;;;7.02;76.19
40502;BME280;29631;49.168;9.848;2023-01-19T14:10:40;95751.53;;;7.32;74.82
40502;BME280;29631;49.168;9.848;2023-01-19T14:15:48;95773.38;;;7.20;74.86
40502;BME280;29631;49.168;9.848;2023-01-19T14:21:09;95787.47;;;7.13;75.65
40502;BME280;29631;49.168;9.848;2023-01-19T14:23:48;95774.81;;;7.03;76.41
40502;BME280;29631;49.168;9.848;2023-01-19T14:29:20;95782.94;;;7.52;76.12
40502;BME280;29631;49.168;9.848;2023-01-19T14:32:03;95782.13;;;7.51;76.10
40502;BME280;29631;49.168;9.848;2023-01-19T14:45:27;95760.72;;;6.98;76.50
40502;BME280;29631;49.168;9.848;2023-01-19T14:48:16;95776.44;;;7.11;77.00
40502;BME280;29631;49.168;9.848;2023-01-19T14:50:42;95761.91;;;6.95;76.30